createdAt,value
2018-09-26T05:00:47.895Z,4.80
2018-09-26T05:03:16.724Z,4.70
2018-09-26T05:05:47.077Z,4.70
2018-09-26T05:08:17.248Z,4.70
2018-09-26T05:10:49.879Z,4.60
2018-09-26T05:13:18.655Z,4.70
2018-09-26T05:15:47.230Z,4.40
2018-09-26T05:18:15.858Z,4.60
2018-09-26T05:20:44.451Z,4.80
2018-09-26T05:23:13.145Z,4.40
2018-09-26T05:25:42.847Z,4.50
2018-09-26T05:28:11.483Z,4.90
2018-09-26T05:33:51.008Z,4.50
2018-09-26T08:57:22.399Z,13.60
2018-09-26T08:59:51.000Z,16.40
2018-09-26T09:02:19.622Z,17.10
2018-09-26T09:04:48.336Z,17.80
2018-09-26T09:07:17.149Z,18.20
2018-09-26T09:09:50.143Z,18.50
2018-09-26T09:12:19.202Z,17.90
2018-09-26T09:14:48.560Z,17.80
2018-09-26T09:17:18.619Z,18.50
2018-09-26T09:19:49.803Z,19.00
2018-09-26T09:22:19.910Z,19.10
2018-09-26T09:24:48.710Z,19.50
2018-09-26T09:27:17.702Z,19.80
2018-09-26T09:29:46.912Z,19.70
2018-09-26T09:32:22.460Z,19.80
2018-09-26T09:34:51.332Z,19.50
2018-09-26T09:37:20.142Z,19.50
2018-09-26T09:39:48.727Z,19.50
2018-09-26T09:42:17.363Z,19.50
2018-09-26T09:44:45.995Z,19.50
2018-09-26T09:47:14.584Z,19.00
2018-09-26T09:49:43.078Z,17.90
2018-09-26T09:52:11.547Z,17.60
2018-09-26T09:54:40.179Z,17.80
2018-09-26T09:57:08.698Z,19.10
2018-09-26T09:59:37.319Z,20.10
2018-09-26T10:02:06.426Z,20.30
2018-09-26T10:04:35.044Z,21.00
2018-09-26T10:07:03.583Z,21.50
2018-09-26T10:09:32.500Z,20.40
2018-09-26T10:12:20.536Z,18.70
2018-09-26T10:21:02.962Z,19.00
2018-09-26T10:23:32.388Z,21.10
2018-09-26T10:26:01.183Z,21.40
2018-09-26T10:28:31.089Z,21.20
2018-09-26T10:31:00.645Z,20.60
2018-09-26T10:34:27.031Z,20.40
2018-09-26T10:50:17.728Z,23.00
2018-09-26T10:53:06.723Z,19.50
2018-09-26T10:55:38.799Z,19.10
2018-09-26T10:58:08.263Z,18.10
2018-09-26T11:24:34.134Z,19.00
2018-09-26T11:27:11.144Z,21.20
2018-09-26T11:29:48.415Z,20.70
2018-09-26T11:41:38.073Z,20.80
2018-09-26T11:44:14.464Z,23.10
2018-09-26T11:47:34.679Z,23.40
2018-09-26T12:05:27.157Z,24.50
2018-09-26T12:08:09.657Z,24.70
2018-09-26T12:11:00.681Z,22.50
2018-09-26T12:16:43.566Z,22.90
2018-09-26T12:23:25.458Z,23.70
2018-09-26T12:26:15.660Z,24.90
2018-09-26T12:28:57.360Z,24.80
2018-09-26T12:31:26.666Z,23.60
2018-09-26T12:34:27.018Z,22.30
2018-09-26T12:37:02.044Z,23.40
2018-09-26T12:39:40.547Z,24.30
2018-09-26T12:42:21.181Z,23.40
2018-09-26T12:44:50.420Z,21.10
2018-09-26T12:47:40.907Z,20.60
2018-09-26T13:08:29.447Z,22.70
2018-09-26T13:17:38.554Z,21.30
2018-09-26T13:20:30.976Z,22.70
2018-09-26T13:23:06.796Z,21.50
2018-09-26T13:25:36.092Z,21.10
2018-09-26T13:28:10.803Z,20.40
2018-09-26T13:30:39.833Z,21.70
2018-09-26T13:33:10.643Z,22.30
2018-09-26T13:35:50.054Z,21.60
2018-09-26T13:38:18.699Z,21.00
2018-09-26T13:40:47.849Z,22.30
2018-09-26T13:43:22.985Z,23.60
2018-09-26T13:45:53.347Z,24.60
2018-09-26T13:48:22.184Z,25.00
2018-09-26T13:50:51.160Z,24.90
2018-09-26T13:53:20.155Z,24.50
2018-09-26T13:55:48.995Z,24.30
2018-09-26T13:58:17.761Z,24.20
2018-09-26T14:00:46.723Z,22.70
2018-09-26T14:03:16.051Z,21.90
2018-09-26T14:05:45.184Z,21.30
2018-09-26T14:11:20.080Z,21.80
2018-09-26T14:13:51.756Z,20.90
2018-09-26T14:16:22.207Z,20.80
2018-09-26T14:18:51.441Z,21.20
2018-09-26T14:21:20.357Z,20.10
2018-09-26T14:23:50.317Z,19.30
2018-09-26T14:32:02.499Z,19.60
2018-09-26T14:37:51.399Z,19.30
2018-09-26T14:43:05.887Z,19.40
2018-09-26T14:45:39.763Z,19.40
2018-09-26T14:48:08.906Z,19.20
2018-09-26T14:50:49.645Z,19.30
2018-09-26T14:56:30.207Z,18.90
2018-09-26T14:58:58.900Z,18.80
2018-09-26T15:01:29.005Z,19.10
2018-09-26T15:03:58.355Z,19.10
2018-09-26T15:06:32.216Z,18.90
2018-09-26T15:12:04.309Z,19.30
2018-09-26T15:14:33.946Z,19.50
2018-09-26T15:17:06.630Z,19.40
2018-09-26T15:19:48.004Z,19.10
2018-09-26T16:27:16.284Z,18.20
2018-09-26T16:29:45.324Z,18.10
2018-09-26T16:32:14.505Z,18.00
2018-09-26T16:34:50.546Z,18.00
2018-09-26T16:37:20.024Z,18.00
2018-09-26T16:39:49.118Z,17.90
2018-09-26T16:42:21.466Z,17.90
2018-09-26T16:44:50.733Z,17.80
2018-09-26T17:11:08.852Z,17.70
2018-09-26T17:14:01.175Z,17.00
2018-09-26T17:16:31.094Z,16.90
2018-09-26T17:19:00.743Z,16.90
2018-09-26T17:21:30.137Z,16.70
2018-09-26T17:24:18.886Z,16.50
2018-09-26T17:26:48.403Z,16.30
2018-09-26T17:29:20.643Z,16.10
2018-09-26T17:31:51.476Z,16.00
2018-09-26T17:34:21.248Z,15.90
2018-09-26T17:37:13.766Z,15.60
2018-09-26T17:39:47.998Z,15.40
2018-09-26T17:42:17.110Z,15.20
2018-09-26T17:44:46.950Z,15.10
2018-09-26T17:47:31.948Z,15.00
2018-09-26T17:50:10.484Z,14.90
2018-09-26T17:52:41.806Z,14.70
2018-09-26T17:55:11.543Z,14.60
2018-09-26T17:57:42.170Z,14.40
2018-09-26T18:00:14.711Z,14.30
2018-09-26T18:02:49.526Z,14.30
2018-09-26T18:05:20.136Z,14.10
2018-09-26T18:07:49.997Z,13.90
2018-09-26T18:10:22.003Z,13.70
2018-09-26T18:12:57.053Z,13.70
2018-09-26T18:15:28.481Z,13.60
2018-09-26T18:17:58.590Z,13.40
2018-09-26T18:20:35.372Z,13.20
2018-09-26T18:23:08.029Z,13.10
2018-09-26T18:25:39.588Z,13.00
2018-09-26T18:28:10.367Z,12.90
2018-09-26T18:30:41.860Z,12.80
2018-09-26T18:33:14.252Z,12.70
2018-09-26T18:35:44.584Z,12.60
2018-09-26T18:38:15.981Z,12.70
2018-09-26T18:40:49.297Z,12.70
2018-09-26T18:43:27.213Z,12.70
2018-09-26T18:46:02.482Z,12.60
2018-09-26T18:48:40.894Z,12.40
2018-09-26T18:51:19.350Z,12.20
2018-09-26T18:54:00.259Z,12.20
2018-09-26T19:12:07.409Z,11.60
2018-09-26T19:14:53.750Z,11.50
2018-09-26T19:17:37.798Z,11.40
2018-09-26T19:20:31.686Z,11.50
2018-09-26T19:26:36.726Z,11.50
2018-09-26T19:29:29.757Z,11.60
2018-09-26T19:32:26.612Z,11.60
2018-09-26T19:35:13.810Z,11.50
2018-09-26T19:41:02.449Z,11.50
2018-09-26T19:46:35.129Z,11.40
2018-09-26T19:49:04.165Z,11.50
2018-09-26T19:51:51.464Z,11.40
2018-09-26T19:54:23.756Z,11.40
2018-09-26T19:57:12.294Z,11.30
2018-09-26T20:00:14.329Z,11.10
2018-09-26T20:02:54.301Z,11.00
2018-09-26T20:29:53.635Z,10.40
2018-09-26T20:35:37.857Z,10.20
